aviador You're here:

KAHN Decoded Metar

ATHENS in GA, USA
Report Time2017-07-23 07:51:00
UTC Time2017-07-23 08:37:50
Flight Rules vfr VFR
Wind260° at 03 kt
W.Decomp.*RWY 27: 3.0 kt HW 0.4 kt LCW
RWY 20: 1.4 kt HW 2.7 kt RCW
W.Rank260° ranks 14
Current wind is below 260° avg. (5.1)
Visibility9999 m
Phenomena:N/A
Clouds:N/A
Expected CloudBase > 400 ft AGL from Temp-Dew spread
CeilingNone
Temp24°C (ISA +11)
Dew Point23°C (94% RH)
QNH1014 hPa
Density Alt2,369 ft
Elevation801 ft
Report Wrong Elevation
Raw Report
METAR KAHN 230751Z AUTO 26003KT 10SM CLR 24/23 A2994 RMK AO2 SLP129
T02390233=

Extra information for KAHN:More info

Metar Taf Metar & Taf Last 4 Metars F.Rules Stats Wind Profile Meteogram Temp Stats Airport Information Weather charts Add Link Nearby VenuesMetar ALERT Operation Metar Decoded Social comments

AIRNAV info for KAHN